sensor_id;sensor_type;location;lat;lon;timestamp;P1;durP1;ratioP1;P2;durP2;ratioP2
71902;SDS011;59778;50.310;18.780;2024-02-26T00:08:21;33.77;;;13.67;;
71902;SDS011;59778;50.310;18.780;2024-02-26T00:23:42;36.93;;;14.13;;
71902;SDS011;59778;50.310;18.780;2024-02-26T00:39:03;39.17;;;16.43;;
71902;SDS011;59778;50.310;18.780;2024-02-26T00:54:24;39.53;;;16.53;;
71902;SDS011;59778;50.310;18.780;2024-02-26T01:09:45;44.90;;;15.63;;
71902;SDS011;59778;50.310;18.780;2024-02-26T01:25:06;38.23;;;14.90;;
71902;SDS011;59778;50.310;18.780;2024-02-26T01:40:28;33.93;;;13.93;;
71902;SDS011;59778;50.310;18.780;2024-02-26T01:55:50;38.40;;;14.07;;
71902;SDS011;59778;50.310;18.780;2024-02-26T02:11:11;32.70;;;12.93;;
71902;SDS011;59778;50.310;18.780;2024-02-26T02:26:32;36.03;;;13.63;;
71902;SDS011;59778;50.310;18.780;2024-02-26T02:41:53;30.13;;;12.90;;
71902;SDS011;59778;50.310;18.780;2024-02-26T02:57:14;32.97;;;13.37;;
71902;SDS011;59778;50.310;18.780;2024-02-26T03:12:35;28.30;;;12.20;;
71902;SDS011;59778;50.310;18.780;2024-02-26T03:27:56;27.17;;;12.33;;
71902;SDS011;59778;50.310;18.780;2024-02-26T03:43:17;32.97;;;13.07;;
71902;SDS011;59778;50.310;18.780;2024-02-26T03:58:39;31.57;;;12.53;;
71902;SDS011;59778;50.310;18.780;2024-02-26T04:14:01;37.87;;;15.03;;
71902;SDS011;59778;50.310;18.780;2024-02-26T04:29:22;33.03;;;13.73;;
71902;SDS011;59778;50.310;18.780;2024-02-26T04:44:43;41.67;;;15.33;;
71902;SDS011;59778;50.310;18.780;2024-02-26T05:00:04;30.37;;;10.27;;
71902;SDS011;59778;50.310;18.780;2024-02-26T05:15:26;32.57;;;11.07;;
71902;SDS011;59778;50.310;18.780;2024-02-26T05:30:47;39.83;;;12.10;;
71902;SDS011;59778;50.310;18.780;2024-02-26T05:46:08;35.33;;;11.87;;
71902;SDS011;59778;50.310;18.780;2024-02-26T06:01:29;29.37;;;10.73;;
71902;SDS011;59778;50.310;18.780;2024-02-26T06:16:50;29.57;;;11.13;;
71902;SDS011;59778;50.310;18.780;2024-02-26T06:32:11;44.73;;;16.47;;
71902;SDS011;59778;50.310;18.780;2024-02-26T06:47:32;45.30;;;15.80;;
71902;SDS011;59778;50.310;18.780;2024-02-26T07:02:53;33.33;;;12.07;;
71902;SDS011;59778;50.310;18.780;2024-02-26T07:18:16;30.20;;;13.23;;
71902;SDS011;59778;50.310;18.780;2024-02-26T07:33:37;36.77;;;13.80;;
71902;SDS011;59778;50.310;18.780;2024-02-26T07:48:58;24.53;;;10.20;;
71902;SDS011;59778;50.310;18.780;2024-02-26T08:04:19;27.93;;;11.73;;
71902;SDS011;59778;50.310;18.780;2024-02-26T08:19:40;26.57;;;10.90;;
71902;SDS011;59778;50.310;18.780;2024-02-26T08:35:01;26.73;;;11.53;;
71902;SDS011;59778;50.310;18.780;2024-02-26T08:50:22;20.63;;;7.63;;
71902;SDS011;59778;50.310;18.780;2024-02-26T09:05:43;17.17;;;7.83;;
71902;SDS011;59778;50.310;18.780;2024-02-26T09:21:05;12.23;;;5.47;;
71902;SDS011;59778;50.310;18.780;2024-02-26T09:36:27;14.27;;;5.47;;
71902;SDS011;59778;50.310;18.780;2024-02-26T09:51:48;11.43;;;4.17;;
71902;SDS011;59778;50.310;18.780;2024-02-26T10:07:11;9.23;;;3.37;;
71902;SDS011;59778;50.310;18.780;2024-02-26T10:22:32;7.83;;;2.70;;
71902;SDS011;59778;50.310;18.780;2024-02-26T10:37:53;6.40;;;2.40;;
71902;SDS011;59778;50.310;18.780;2024-02-26T10:53:18;6.47;;;2.40;;
71902;SDS011;59778;50.310;18.780;2024-02-26T11:08:40;8.63;;;2.90;;
71902;SDS011;59778;50.310;18.780;2024-02-26T11:24:02;6.63;;;2.33;;
71902;SDS011;59778;50.310;18.780;2024-02-26T11:39:23;6.50;;;1.93;;
71902;SDS011;59778;50.310;18.780;2024-02-26T12:10:17;4.80;;;1.70;;
71902;SDS011;59778;50.310;18.780;2024-02-26T12:25:41;4.20;;;1.83;;
71902;SDS011;59778;50.310;18.780;2024-02-26T12:41:02;6.80;;;2.50;;
71902;SDS011;59778;50.310;18.780;2024-02-26T12:56:23;7.07;;;2.50;;
71902;SDS011;59778;50.310;18.780;2024-02-26T13:11:47;9.77;;;3.63;;
71902;SDS011;59778;50.310;18.780;2024-02-26T13:27:20;10.27;;;3.00;;
71902;SDS011;59778;50.310;18.780;2024-02-26T13:42:41;7.33;;;2.80;;
71902;SDS011;59778;50.310;18.780;2024-02-26T13:58:02;8.00;;;2.83;;
71902;SDS011;59778;50.310;18.780;2024-02-26T14:13:25;12.40;;;4.13;;
71902;SDS011;59778;50.310;18.780;2024-02-26T14:28:46;11.07;;;3.97;;
71902;SDS011;59778;50.310;18.780;2024-02-26T14:44:07;16.03;;;6.30;;
71902;SDS011;59778;50.310;18.780;2024-02-26T14:59:29;24.43;;;9.83;;
71902;SDS011;59778;50.310;18.780;2024-02-26T15:14:50;18.93;;;8.60;;
71902;SDS011;59778;50.310;18.780;2024-02-26T15:30:11;17.90;;;6.70;;
71902;SDS011;59778;50.310;18.780;2024-02-26T15:45:32;20.33;;;8.77;;
71902;SDS011;59778;50.310;18.780;2024-02-26T16:00:54;16.60;;;6.33;;
71902;SDS011;59778;50.310;18.780;2024-02-26T16:16:17;18.90;;;8.37;;
71902;SDS011;59778;50.310;18.780;2024-02-26T16:31:39;26.33;;;12.13;;
71902;SDS011;59778;50.310;18.780;2024-02-26T16:47:01;38.13;;;16.53;;
71902;SDS011;59778;50.310;18.780;2024-02-26T17:02:22;24.10;;;9.90;;
71902;SDS011;59778;50.310;18.780;2024-02-26T17:17:43;19.80;;;9.00;;
71902;SDS011;59778;50.310;18.780;2024-02-26T17:33:05;20.67;;;9.47;;
71902;SDS011;59778;50.310;18.780;2024-02-26T17:48:26;20.93;;;8.63;;
71902;SDS011;59778;50.310;18.780;2024-02-26T18:03:48;28.40;;;10.53;;
71902;SDS011;59778;50.310;18.780;2024-02-26T18:19:11;25.33;;;10.50;;
71902;SDS011;59778;50.310;18.780;2024-02-26T18:34:33;54.47;;;20.03;;
71902;SDS011;59778;50.310;18.780;2024-02-26T18:49:54;29.13;;;11.17;;
71902;SDS011;59778;50.310;18.780;2024-02-26T19:05:15;57.60;;;19.97;;
71902;SDS011;59778;50.310;18.780;2024-02-26T19:20:38;61.73;;;25.17;;
71902;SDS011;59778;50.310;18.780;2024-02-26T19:35:59;88.23;;;31.90;;
71902;SDS011;59778;50.310;18.780;2024-02-26T19:51:20;58.87;;;22.93;;
71902;SDS011;59778;50.310;18.780;2024-02-26T20:06:41;58.73;;;22.23;;
71902;SDS011;59778;50.310;18.780;2024-02-26T20:22:02;110.83;;;32.13;;
71902;SDS011;59778;50.310;18.780;2024-02-26T20:37:24;115.53;;;37.03;;
71902;SDS011;59778;50.310;18.780;2024-02-26T20:52:45;139.87;;;44.17;;
71902;SDS011;59778;50.310;18.780;2024-02-26T21:08:06;186.77;;;58.07;;
71902;SDS011;59778;50.310;18.780;2024-02-26T21:23:27;158.13;;;49.73;;
71902;SDS011;59778;50.310;18.780;2024-02-26T21:38:48;150.87;;;47.50;;
71902;SDS011;59778;50.310;18.780;2024-02-26T21:54:10;110.43;;;39.50;;
71902;SDS011;59778;50.310;18.780;2024-02-26T22:09:32;96.67;;;34.67;;
71902;SDS011;59778;50.310;18.780;2024-02-26T22:24:53;91.17;;;32.93;;
71902;SDS011;59778;50.310;18.780;2024-02-26T22:40:14;97.23;;;34.53;;
71902;SDS011;59778;50.310;18.780;2024-02-26T22:55:35;88.70;;;30.90;;
71902;SDS011;59778;50.310;18.780;2024-02-26T23:10:56;101.40;;;35.70;;
71902;SDS011;59778;50.310;18.780;2024-02-26T23:26:17;92.10;;;33.27;;
71902;SDS011;59778;50.310;18.780;2024-02-26T23:41:38;79.33;;;29.70;;
71902;SDS011;59778;50.310;18.780;2024-02-26T23:56:59;84.70;;;29.20;;
